Terminal Aerodrome Forecast
Issued by NWS

Home | Current Version | Previous Version | Text Only | Print | Product List | Glossary On
Versions: 1 2 3 4 5 6 7 8 9 10 11 12 13 14 15 16 17 18 19
210
FTUS43 KICT 270520
TAFCNU
TAF
KCNU 270520Z 2706/2806 07008KT P6SM FEW030 OVC120
     FM270700 09012KT P6SM VCTS SCT030 BKN050CB
      TEMPO 2707/2709 VRB25G40KT 3/4SM +TSRA OVC025CB
     FM271200 15009KT 6SM BR OVC015
     FM271900 17013G21KT P6SM SCT035
     FM272300 16009KT P6SM VCTS BKN035CB=

USA.gov is the U.S. government's official web portal to all federal, state and local government web resources and services.